createdAt,value
2018-02-06T00:01:31.553Z,-6.60
2018-02-06T00:03:59.190Z,-6.60
2018-02-06T00:06:27.054Z,-6.70
2018-02-06T00:08:54.716Z,-6.70
2018-02-06T00:11:22.335Z,-6.70
2018-02-06T00:13:50.002Z,-6.80
2018-02-06T00:16:17.634Z,-6.80
2018-02-06T00:18:46.051Z,-6.80
2018-02-06T00:21:14.435Z,-6.70
2018-02-06T00:23:42.846Z,-6.80
2018-02-06T00:26:10.499Z,-6.80
2018-02-06T00:28:38.949Z,-6.90
2018-02-06T00:31:06.568Z,-6.90
2018-02-06T00:33:34.195Z,-6.90
2018-02-06T00:36:01.848Z,-7.00
2018-02-06T00:38:30.268Z,-7.00
2018-02-06T00:40:58.675Z,-7.10
2018-02-06T00:43:26.288Z,-7.10
2018-02-06T00:45:53.969Z,-7.00
2018-02-06T00:48:21.579Z,-6.90
2018-02-06T00:50:49.567Z,-6.80
2018-02-06T00:53:17.211Z,-6.80
2018-02-06T00:55:44.816Z,-6.80
2018-02-06T00:58:12.449Z,-6.80
2018-02-06T01:00:40.094Z,-6.60
2018-02-06T01:03:08.495Z,-6.70
2018-02-06T01:05:36.133Z,-6.70
2018-02-06T01:08:04.647Z,-6.80
2018-02-06T01:10:32.244Z,-6.90
2018-02-06T01:12:59.895Z,-6.90
2018-02-06T01:15:27.572Z,-6.90
2018-02-06T01:17:55.179Z,-6.90
2018-02-06T01:20:22.867Z,-6.90
2018-02-06T01:22:50.481Z,-6.90
2018-02-06T01:25:18.117Z,-6.90
2018-02-06T01:27:45.782Z,-6.90
2018-02-06T01:30:13.395Z,-6.90
2018-02-06T01:32:41.026Z,-7.10
2018-02-06T01:35:08.670Z,-7.10
2018-02-06T01:37:36.297Z,-7.20
2018-02-06T01:40:05.029Z,-7.30
2018-02-06T01:42:32.653Z,-7.30
2018-02-06T01:45:00.311Z,-7.20
2018-02-06T01:47:27.966Z,-7.30
2018-02-06T01:50:05.308Z,-7.20
2018-02-06T01:52:33.731Z,-7.30
2018-02-06T01:55:01.467Z,-7.30
2018-02-06T01:57:29.124Z,-7.30
2018-02-06T01:59:57.501Z,-7.20
2018-02-06T02:02:25.926Z,-7.30
2018-02-06T02:04:53.565Z,-7.30
2018-02-06T02:07:22.960Z,-7.20
2018-02-06T02:09:51.877Z,-7.20
2018-02-06T02:12:19.542Z,-7.20
2018-02-06T02:14:47.228Z,-7.30
2018-02-06T02:17:14.854Z,-7.20
2018-02-06T02:19:43.224Z,-7.30
2018-02-06T02:22:11.613Z,-7.30
2018-02-06T02:24:40.004Z,-7.20
2018-02-06T02:27:08.398Z,-7.20
2018-02-06T02:29:36.766Z,-7.30
2018-02-06T02:32:05.178Z,-7.30
2018-02-06T02:34:32.826Z,-7.30
2018-02-06T02:37:00.473Z,-7.10
2018-02-06T02:39:28.115Z,-7.20
2018-02-06T04:40:15.026Z,-7.80
2018-02-06T04:42:42.670Z,-7.80
2018-02-06T04:45:11.071Z,-7.90
2018-02-06T04:47:38.732Z,-7.90
2018-02-06T04:50:06.362Z,-7.80
2018-02-06T04:52:33.955Z,-7.80
2018-02-06T04:55:02.460Z,-7.90
2018-02-06T04:57:30.066Z,-7.90
2018-02-06T04:59:57.705Z,-7.90
2018-02-06T05:02:25.355Z,-7.80
2018-02-06T05:04:52.958Z,-7.70
2018-02-06T05:07:20.588Z,-7.80
2018-02-06T05:09:48.235Z,-7.80
2018-02-06T05:12:16.604Z,-7.80
2018-02-06T05:14:44.239Z,-7.90
2018-02-06T05:17:12.063Z,-7.90
2018-02-06T05:19:40.576Z,-8.00
2018-02-06T05:22:08.221Z,-8.10
2018-02-06T05:24:36.277Z,-8.10
2018-02-06T05:27:04.654Z,-8.00
2018-02-06T05:29:33.034Z,-8.00
2018-02-06T05:32:01.456Z,-8.00
2018-02-06T05:34:29.143Z,-8.00
2018-02-06T05:36:56.861Z,-7.90
2018-02-06T05:39:25.241Z,-7.90
2018-02-06T05:41:52.867Z,-7.90
2018-02-06T05:44:20.506Z,-7.90
2018-02-06T05:46:48.142Z,-7.90
2018-02-06T05:49:16.533Z,-7.70
2018-02-06T05:51:44.946Z,-7.70
2018-02-06T05:54:12.562Z,-7.80
2018-02-06T05:56:40.186Z,-7.80
2018-02-06T05:59:07.848Z,-7.90
2018-02-06T06:01:35.465Z,-7.90
2018-02-06T06:04:03.298Z,-7.70
2018-02-06T06:06:30.952Z,-7.80
2018-02-06T06:08:58.760Z,-7.70
2018-02-06T06:11:26.437Z,-7.70
2018-02-06T06:13:54.085Z,-7.70
2018-02-06T06:16:21.730Z,-7.80
2018-02-06T06:18:49.369Z,-7.80
2018-02-06T06:21:17.002Z,-7.80
2018-02-06T06:23:44.662Z,-7.80
2018-02-06T06:26:12.294Z,-7.80
2018-02-06T06:28:41.873Z,-7.90
2018-02-06T06:31:09.995Z,-8.00
2018-02-06T06:33:37.619Z,-8.10
2018-02-06T06:36:06.013Z,-8.10
2018-02-06T06:38:33.661Z,-8.10
2018-02-06T06:41:02.088Z,-8.20
2018-02-06T06:43:30.377Z,-8.20
2018-02-06T06:45:58.038Z,-8.10
2018-02-06T06:48:25.688Z,-8.20
2018-02-06T06:50:53.306Z,-8.20
2018-02-06T06:53:20.988Z,-8.10
2018-02-06T06:55:49.442Z,-8.10
2018-02-06T06:58:17.791Z,-8.10
2018-02-06T07:00:45.397Z,-8.10
2018-02-06T07:03:13.042Z,-8.00
2018-02-06T07:05:40.992Z,-8.00
2018-02-06T07:08:08.989Z,-7.80
2018-02-06T07:10:37.169Z,-7.90
2018-02-06T07:13:04.788Z,-7.80
2018-02-06T07:15:33.229Z,-7.40
2018-02-06T07:18:01.110Z,-7.40
2018-02-06T07:20:29.283Z,-7.20
2018-02-06T07:22:56.958Z,-7.20
2018-02-06T07:25:24.582Z,-7.00
2018-02-06T07:27:52.227Z,-6.90
2018-02-06T07:30:20.738Z,-6.80
2018-02-06T07:32:48.974Z,-6.80
2018-02-06T07:35:17.554Z,-6.60
2018-02-06T07:37:45.991Z,-6.50
2018-02-06T07:40:13.604Z,-6.60
2018-02-06T07:42:42.003Z,-6.50
2018-02-06T07:45:10.431Z,-6.40
2018-02-06T07:47:38.052Z,-6.40
2018-02-06T07:50:06.486Z,-6.20
2018-02-06T07:52:34.127Z,-6.30
2018-02-06T07:55:01.773Z,-6.20
2018-02-06T07:57:30.207Z,-6.10
2018-02-06T07:59:58.338Z,-6.10
2018-02-06T08:02:26.747Z,-6.00
2018-02-06T08:04:54.373Z,-6.00
2018-02-06T08:07:21.984Z,-5.80
2018-02-06T08:09:49.630Z,-5.80
2018-02-06T08:12:17.288Z,-5.70
2018-02-06T08:14:45.712Z,-5.20
2018-02-06T08:17:13.355Z,-5.20
2018-02-06T08:19:40.989Z,-5.00
2018-02-06T08:22:09.379Z,-4.90
2018-02-06T08:24:37.806Z,-4.70
2018-02-06T08:27:05.460Z,-4.70
2018-02-06T08:29:33.133Z,-4.70
2018-02-06T08:32:00.775Z,-4.60
2018-02-06T08:34:29.203Z,-4.70
2018-02-06T08:36:56.840Z,-4.70
2018-02-06T08:39:24.487Z,-4.70
2018-02-06T08:41:52.866Z,-4.50
2018-02-06T08:44:21.275Z,-4.20
2018-02-06T08:46:48.882Z,-4.30
2018-02-06T08:49:16.822Z,-4.30
2018-02-06T08:51:44.454Z,-4.20
2018-02-06T08:54:12.858Z,-4.00
2018-02-06T08:56:40.527Z,-4.00
2018-02-06T08:59:08.960Z,-4.00
2018-02-06T09:01:36.589Z,-3.80
2018-02-06T09:04:04.248Z,-3.60
2018-02-06T09:06:31.866Z,-3.50
2018-02-06T09:08:59.482Z,-3.60
2018-02-06T09:11:28.286Z,-3.20
2018-02-06T09:13:56.163Z,-3.20
2018-02-06T09:16:23.785Z,-3.00
2018-02-06T09:18:52.198Z,-2.90
2018-02-06T09:21:19.809Z,-2.90
2018-02-06T09:23:47.445Z,-2.90
2018-02-06T09:26:15.065Z,-2.70
2018-02-06T09:28:42.734Z,-2.70
2018-02-06T09:31:11.199Z,-2.40
2018-02-06T09:33:38.840Z,-2.40
2018-02-06T09:36:06.471Z,-2.40
2018-02-06T09:38:34.873Z,-2.10
2018-02-06T09:41:02.528Z,-2.10
2018-02-06T09:43:30.187Z,-2.10
2018-02-06T09:45:58.580Z,-1.70
2018-02-06T09:48:26.229Z,-1.70
2018-02-06T09:50:53.951Z,-1.60
2018-02-06T09:53:21.590Z,-1.40
2018-02-06T09:55:49.226Z,-1.50
2018-02-06T09:58:17.635Z,-1.50
2018-02-06T10:00:45.257Z,-1.50
2018-02-06T10:03:13.633Z,-1.20
2018-02-06T10:05:41.272Z,-1.20
2018-02-06T10:08:08.880Z,-0.90
2018-02-06T10:10:36.474Z,-0.80
2018-02-06T10:13:04.909Z,-0.90
2018-02-06T10:15:32.536Z,-0.90
2018-02-06T10:18:00.244Z,-0.70
2018-02-06T10:20:27.898Z,-0.60
2018-02-06T10:22:55.541Z,-0.50
2018-02-06T10:25:23.248Z,-0.50
2018-02-06T10:27:50.993Z,-0.40
2018-02-06T10:30:18.647Z,-0.10
2018-02-06T10:32:46.312Z,-0.30
2018-02-06T10:35:14.023Z,-0.10
2018-02-06T10:37:42.427Z,0.00
2018-02-06T10:40:10.068Z,-0.10
2018-02-06T10:42:37.704Z,0.20
2018-02-06T10:45:05.298Z,0.30
2018-02-06T10:47:32.945Z,0.20
2018-02-06T10:50:00.568Z,0.20
2018-02-06T10:52:28.221Z,0.70
2018-02-06T10:54:55.862Z,0.60
2018-02-06T10:57:23.455Z,0.90
2018-02-06T10:59:51.137Z,1.10
2018-02-06T11:02:18.773Z,1.20
2018-02-06T11:04:46.371Z,1.10
2018-02-06T11:07:14.784Z,1.70
2018-02-06T11:09:42.413Z,1.60
2018-02-06T11:12:10.823Z,1.60
2018-02-06T11:14:38.456Z,1.60
2018-02-06T11:17:06.833Z,1.40
2018-02-06T11:19:34.590Z,1.40
2018-02-06T11:22:02.226Z,1.60
2018-02-06T11:24:29.840Z,1.60
2018-02-06T11:26:57.433Z,1.30
2018-02-06T11:29:25.074Z,1.40
2018-02-06T11:31:52.707Z,1.60
2018-02-06T11:34:20.340Z,2.10
2018-02-06T11:36:48.049Z,2.30
2018-02-06T11:39:15.640Z,1.90
2018-02-06T11:41:44.021Z,2.00
2018-02-06T11:44:12.432Z,2.20
2018-02-06T11:46:40.777Z,2.40
2018-02-06T11:49:08.412Z,2.40
2018-02-06T11:51:36.053Z,2.30
2018-02-06T11:54:03.671Z,2.10
2018-02-06T11:56:31.334Z,2.40
2018-02-06T11:58:58.981Z,2.30
2018-02-06T12:01:26.670Z,2.70
2018-02-06T12:03:54.417Z,2.20
2018-02-06T12:06:22.040Z,2.50
2018-02-06T12:08:50.426Z,1.70
2018-02-06T12:11:18.804Z,1.50
2018-02-06T12:13:46.411Z,1.40
2018-02-06T12:16:14.055Z,0.90
2018-02-06T12:18:41.682Z,1.00
2018-02-06T12:21:09.302Z,0.70
2018-02-06T12:23:36.905Z,1.10
2018-02-06T12:26:04.511Z,0.90
2018-02-06T12:28:32.169Z,1.30
2018-02-06T12:30:59.821Z,0.60
2018-02-06T12:33:27.416Z,0.80
2018-02-06T12:35:55.083Z,0.90
2018-02-06T12:38:22.739Z,0.50
2018-02-06T12:40:50.357Z,0.70
2018-02-06T12:43:18.004Z,0.40
2018-02-06T12:45:45.612Z,0.40
2018-02-06T12:48:14.033Z,0.40
2018-02-06T12:50:41.687Z,0.40
2018-02-06T12:53:10.208Z,0.20
2018-02-06T12:55:37.807Z,0.10
2018-02-06T12:58:05.439Z,0.20
2018-02-06T13:00:33.103Z,-0.20
2018-02-06T13:03:00.726Z,-0.30
2018-02-06T13:05:29.477Z,-0.30
2018-02-06T13:07:57.103Z,-0.20
2018-02-06T13:10:24.774Z,-0.20
2018-02-06T13:12:52.419Z,-0.10
2018-02-06T13:15:20.044Z,-0.10
2018-02-06T13:17:49.291Z,-0.20
2018-02-06T13:20:17.689Z,-0.20
2018-02-06T13:22:46.047Z,-0.30
2018-02-06T13:25:14.051Z,-0.30
2018-02-06T13:27:41.665Z,-0.40
2018-02-06T13:30:09.298Z,-0.40
2018-02-06T13:32:37.300Z,-0.40
2018-02-06T13:35:04.903Z,-0.50
2018-02-06T13:37:33.322Z,-0.60
2018-02-06T13:40:00.980Z,-0.60
2018-02-06T13:42:28.609Z,-0.60
2018-02-06T13:44:56.237Z,-0.60
2018-02-06T13:47:23.896Z,-0.70
2018-02-06T13:49:51.566Z,-0.70
2018-02-06T13:52:19.193Z,-0.70
2018-02-06T13:54:47.589Z,-0.80
2018-02-06T13:57:15.257Z,-0.80
2018-02-06T13:59:42.866Z,-0.80
2018-02-06T14:02:10.520Z,-0.80
2018-02-06T14:04:38.130Z,-0.70
2018-02-06T14:07:05.738Z,-0.80
2018-02-06T14:09:33.539Z,-0.70
2018-02-06T14:12:01.267Z,-0.80
2018-02-06T14:14:28.897Z,-0.80
2018-02-06T14:16:56.555Z,-0.90
2018-02-06T14:19:24.178Z,-0.90
2018-02-06T14:21:51.836Z,-0.90
2018-02-06T14:24:19.445Z,-0.90
2018-02-06T14:26:47.073Z,-0.90
2018-02-06T14:29:14.718Z,-0.90
2018-02-06T14:31:43.115Z,-1.00
2018-02-06T14:34:10.758Z,-1.00
2018-02-06T14:36:38.392Z,-1.00
2018-02-06T14:39:06.089Z,-1.00
2018-02-06T14:41:34.758Z,-1.10
2018-02-06T14:44:03.179Z,-1.00
2018-02-06T14:46:30.854Z,-1.10
2018-02-06T14:48:58.467Z,-1.10
2018-02-06T14:51:26.886Z,-1.20
2018-02-06T14:53:54.554Z,-1.20
2018-02-06T14:56:22.190Z,-1.20
2018-02-06T14:58:50.591Z,-1.30
2018-02-06T15:01:18.272Z,-1.30
2018-02-06T15:03:45.879Z,-1.20
2018-02-06T15:06:13.506Z,-1.20
2018-02-06T15:08:41.130Z,-1.30
2018-02-06T15:11:09.551Z,-1.40
2018-02-06T15:13:38.145Z,-1.40
2018-02-06T15:16:05.747Z,-1.40
2018-02-06T15:18:33.413Z,-1.40
2018-02-06T15:21:01.120Z,-1.50
2018-02-06T15:23:29.586Z,-1.50
2018-02-06T15:25:58.019Z,-1.50
2018-02-06T15:28:25.742Z,-1.60
2018-02-06T15:30:53.403Z,-1.60
2018-02-06T15:33:21.009Z,-1.70
2018-02-06T15:35:48.705Z,-1.70
2018-02-06T15:38:16.340Z,-1.70
2018-02-06T15:40:43.978Z,-1.70
2018-02-06T15:43:12.427Z,-1.80
2018-02-06T15:45:40.135Z,-1.90
2018-02-06T15:48:07.805Z,-1.90
2018-02-06T15:50:36.463Z,-1.90
2018-02-06T15:53:05.547Z,-2.00
2018-02-06T15:55:33.228Z,-2.00
2018-02-06T15:58:00.909Z,-2.00
2018-02-06T16:03:32.310Z,-2.10
2018-02-06T16:05:59.966Z,-2.20
2018-02-06T16:08:27.596Z,-2.20
2018-02-06T16:10:55.267Z,-2.40
2018-02-06T16:13:24.172Z,-2.40
2018-02-06T16:15:54.461Z,-2.40
2018-02-06T16:18:22.910Z,-2.40
2018-02-06T16:20:51.108Z,-2.50
2018-02-06T16:23:18.987Z,-2.60
2018-02-06T16:25:46.650Z,-2.60
2018-02-06T16:28:14.334Z,-2.60
2018-02-06T16:30:42.158Z,-2.70
2018-02-06T16:33:09.859Z,-2.80
2018-02-06T16:35:37.508Z,-2.90
2018-02-06T16:38:05.190Z,-2.90
2018-02-06T16:40:32.863Z,-2.90
2018-02-06T16:43:00.539Z,-2.90
2018-02-06T16:45:28.325Z,-3.00
2018-02-06T16:47:55.936Z,-3.10
2018-02-06T16:50:23.559Z,-3.10
2018-02-06T16:52:51.215Z,-3.10
2018-02-06T16:55:18.857Z,-3.10
2018-02-06T16:57:46.723Z,-3.20
2018-02-06T17:00:14.331Z,-3.20
2018-02-06T17:02:41.932Z,-3.30
2018-02-06T17:05:09.628Z,-3.30
2018-02-06T17:07:37.324Z,-3.30
2018-02-06T17:10:04.951Z,-3.40
2018-02-06T17:12:32.784Z,-3.40
2018-02-06T17:15:01.216Z,-3.50
2018-02-06T17:17:29.615Z,-3.50
2018-02-06T17:19:58.134Z,-3.50
2018-02-06T17:22:25.735Z,-3.50
2018-02-06T17:24:53.375Z,-3.50
2018-02-06T17:27:21.791Z,-3.60
2018-02-06T17:29:49.392Z,-3.60
2018-02-06T17:32:17.000Z,-3.60
2018-02-06T17:34:45.704Z,-3.70
2018-02-06T17:37:13.327Z,-3.70
2018-02-06T17:39:40.919Z,-3.70
2018-02-06T17:42:09.322Z,-3.80
2018-02-06T17:44:36.933Z,-3.90
2018-02-06T17:47:04.522Z,-3.90
2018-02-06T17:49:32.944Z,-3.90
2018-02-06T17:52:00.583Z,-3.90
2018-02-06T17:54:29.598Z,-4.00
2018-02-06T17:56:57.337Z,-4.10
2018-02-06T17:59:25.057Z,-4.10
2018-02-06T18:01:52.722Z,-4.10
2018-02-06T18:04:20.404Z,-4.10
2018-02-06T18:06:48.052Z,-4.00
2018-02-06T18:09:15.692Z,-3.80
2018-02-06T18:11:44.090Z,-3.90
2018-02-06T18:14:11.742Z,-3.90
2018-02-06T18:16:39.402Z,-3.90
2018-02-06T18:19:07.185Z,-3.90
2018-02-06T18:21:34.937Z,-3.90
2018-02-06T18:24:03.308Z,-3.80
2018-02-06T18:26:30.997Z,-3.90
2018-02-06T18:28:58.679Z,-3.80
2018-02-06T18:31:26.514Z,-3.80
2018-02-06T18:33:54.104Z,-3.80
2018-02-06T18:36:22.477Z,-3.90
2018-02-06T18:38:50.701Z,-3.90
2018-02-06T18:41:18.343Z,-3.90
2018-02-06T18:43:46.175Z,-3.90
2018-02-06T18:46:14.219Z,-3.90
2018-02-06T18:48:42.682Z,-3.90
2018-02-06T18:51:10.303Z,-3.90
2018-02-06T18:53:38.069Z,-4.00
2018-02-06T18:56:05.677Z,-4.00
2018-02-06T18:58:33.343Z,-3.90
2018-02-06T19:01:01.003Z,-3.90
2018-02-06T19:03:28.657Z,-3.90
2018-02-06T19:05:57.792Z,-3.90
2018-02-06T19:08:25.436Z,-3.90
2018-02-06T19:10:54.208Z,-4.10
2018-02-06T19:13:21.948Z,-4.10
2018-02-06T19:15:50.357Z,-4.10
2018-02-06T19:18:18.868Z,-4.10
2018-02-06T19:20:46.613Z,-4.20
2018-02-06T19:23:15.106Z,-4.10
2018-02-06T19:25:43.015Z,-4.10
2018-02-06T19:28:10.804Z,-4.20
2018-02-06T19:30:39.561Z,-4.20
2018-02-06T19:33:07.217Z,-4.20
2018-02-06T19:35:35.949Z,-4.20
2018-02-06T19:38:03.927Z,-4.20
2018-02-06T19:40:31.561Z,-4.20
2018-02-06T19:42:59.845Z,-4.20
2018-02-06T19:45:28.934Z,-4.10
2018-02-06T19:47:56.801Z,-4.20
2018-02-06T19:50:24.714Z,-4.20
2018-02-06T19:52:52.404Z,-4.10
2018-02-06T19:55:20.168Z,-4.00
2018-02-06T19:57:47.841Z,-4.00
2018-02-06T20:00:15.551Z,-4.00
2018-02-06T20:02:43.290Z,-4.00
2018-02-06T20:05:10.952Z,-4.00
2018-02-06T20:07:38.652Z,-3.90
2018-02-06T20:10:07.063Z,-3.90
2018-02-06T20:12:35.998Z,-3.90
2018-02-06T20:15:03.646Z,-3.90
2018-02-06T20:17:31.258Z,-3.80
2018-02-06T20:19:58.907Z,-3.80
2018-02-06T20:22:26.573Z,-3.80
2018-02-06T20:24:54.254Z,-3.80
2018-02-06T20:27:21.904Z,-3.80
2018-02-06T20:29:50.315Z,-3.80
2018-02-06T20:32:18.021Z,-3.70
2018-02-06T20:34:45.663Z,-3.70
2018-02-06T20:37:14.427Z,-3.60
2018-02-06T20:39:42.346Z,-3.60
2018-02-06T20:42:10.090Z,-3.60
2018-02-06T20:44:38.583Z,-3.60
2018-02-06T20:47:06.249Z,-3.60
2018-02-06T20:49:34.001Z,-3.60
2018-02-06T20:52:01.734Z,-3.60
2018-02-06T20:54:30.349Z,-3.70
2018-02-06T20:56:58.430Z,-3.70
2018-02-06T20:59:26.842Z,-3.70
2018-02-06T21:01:54.540Z,-3.70
2018-02-06T21:04:22.193Z,-3.70
2018-02-06T21:06:50.023Z,-3.60
2018-02-06T21:09:18.487Z,-3.60
2018-02-06T21:11:46.235Z,-3.60
2018-02-06T21:14:13.975Z,-3.60
2018-02-06T21:16:42.401Z,-3.60
2018-02-06T21:19:10.354Z,-3.60
2018-02-06T21:21:38.481Z,-3.60
2018-02-06T21:24:06.107Z,-3.60
2018-02-06T21:26:34.545Z,-3.60
2018-02-06T21:29:03.855Z,-3.60
2018-02-06T21:31:31.597Z,-3.60
2018-02-06T21:33:59.801Z,-3.50
2018-02-06T21:36:28.270Z,-3.60
2018-02-06T21:38:55.906Z,-3.60
2018-02-06T21:41:23.683Z,-3.60
2018-02-06T21:43:51.323Z,-3.60
2018-02-06T21:46:19.781Z,-3.50
2018-02-06T21:48:47.468Z,-3.50
2018-02-06T21:51:15.914Z,-3.50
2018-02-06T21:53:43.861Z,-3.50
2018-02-06T21:56:11.530Z,-3.50
2018-02-06T21:58:39.201Z,-3.50
2018-02-06T22:01:06.822Z,-3.40
2018-02-06T22:03:35.274Z,-3.50
2018-02-06T22:06:02.957Z,-3.50
2018-02-06T22:08:30.586Z,-3.40
2018-02-06T22:10:58.720Z,-3.50
2018-02-06T22:13:26.386Z,-3.40
2018-02-06T22:15:54.771Z,-3.50
2018-02-06T22:18:23.161Z,-3.50
2018-02-06T22:20:50.776Z,-3.50
2018-02-06T22:23:18.405Z,-3.50
2018-02-06T22:25:46.039Z,-3.50
2018-02-06T22:28:13.680Z,-3.50
2018-02-06T22:30:41.320Z,-3.60
2018-02-06T22:33:08.958Z,-3.60
2018-02-06T22:35:36.670Z,-3.60
2018-02-06T22:38:04.342Z,-3.60
2018-02-06T22:40:32.922Z,-3.70
2018-02-06T22:43:00.884Z,-3.70
2018-02-06T22:45:29.375Z,-3.70
2018-02-06T22:47:57.004Z,-3.70
2018-02-06T22:50:24.751Z,-3.70
2018-02-06T22:52:53.123Z,-3.70
2018-02-06T22:55:20.733Z,-3.70
2018-02-06T22:57:48.405Z,-3.70
2018-02-06T23:00:22.929Z,-3.70
2018-02-06T23:02:50.825Z,-3.70
2018-02-06T23:05:18.470Z,-3.70
2018-02-06T23:07:46.073Z,-3.60
2018-02-06T23:10:13.706Z,-3.60
2018-02-06T23:12:41.316Z,-3.60
2018-02-06T23:15:08.951Z,-3.60
2018-02-06T23:17:36.626Z,-3.60
2018-02-06T23:20:05.322Z,-3.60
2018-02-06T23:22:34.393Z,-3.70
2018-02-06T23:25:01.999Z,-3.60
2018-02-06T23:27:30.860Z,-3.70
2018-02-06T23:29:58.937Z,-3.70
2018-02-06T23:32:26.657Z,-3.70
2018-02-06T23:34:55.154Z,-3.60
2018-02-06T23:37:23.513Z,-3.60
2018-02-06T23:39:51.278Z,-3.60
2018-02-06T23:42:18.905Z,-3.70
2018-02-06T23:44:46.546Z,-3.70
2018-02-06T23:47:14.198Z,-3.60
2018-02-06T23:49:42.295Z,-3.60
2018-02-06T23:52:09.934Z,-3.60
2018-02-06T23:54:38.340Z,-3.60
2018-02-06T23:57:05.958Z,-3.60
2018-02-06T23:59:33.623Z,-3.60
